Time;durP1;ratioP1;P1;durP2;ratioP2;P2;SDS_P1;SDS_P2;PMS_P1;PMS_P2;Temp;Humidity;BMP_temperature;BMP_pressure;BME280_temperature;BME280_humidity;BME280_pressure;Samples;Min_cycle;Max_cycle;Signal;HPM_P1;HPM_P2
2023/03/05 08:00:09;;;;;;;23.20;12.27;;;1.40;99.90;;;;;;5176436;27;20287;-79
2023/03/05 08:05:39;;;;;;;27.57;14.70;;;;;;;;;;5135045;27;20278;-79
2023/03/05 08:10:16;;;;;;;23.50;12.07;;;;;;;;;;5134979;27;20267;-79
2023/03/05 08:15:05;;;;;;;25.87;13.00;;;1.70;99.90;;;;;;5134973;27;20274;-80
2023/03/05 08:19:02;;;;;;;20.73;10.90;;;1.60;99.90;;;;;;5134253;27;20301;-79
2023/03/05 08:28:54;;;;;;;30.63;19.00;;;1.70;99.90;;;;;;5133099;27;20291;-79
2023/03/05 08:38:49;;;;;;;24.27;14.80;;;2.00;99.90;;;;;;5074948;28;20529;-80
2023/03/05 08:42:25;;;;;;;19.23;11.77;;;;;;;;;;5137072;27;20286;-80
2023/03/05 08:46:57;;;;;;;36.33;18.53;;;;;;;;;;5138787;27;20274;-81
2023/03/05 08:50:09;;;;;;;24.07;13.50;;;2.00;99.90;;;;;;5137213;27;20282;-80
2023/03/05 08:53:44;;;;;;;70.23;33.63;;;2.40;99.90;;;;;;5138952;27;20283;-81
2023/03/05 08:57:41;;;;;;;26.20;13.50;;;2.60;99.90;;;;;;5138439;27;20699;-79
2023/03/05 09:01:43;;;;;;;18.67;12.60;;;;;;;;;;5075969;28;20521;-80
2023/03/05 09:05:44;;;;;;;18.67;12.30;;;;;;;;;;5136349;27;20301;-81
2023/03/05 09:09:45;;;;;;;22.13;13.53;;;;;;;;;;5136324;27;20609;-81
2023/03/05 09:13:45;;;;;;;19.57;11.33;;;;;;;;;;5136583;27;20279;-80
2023/03/05 09:17:45;;;;;;;28.83;16.97;;;2.60;99.90;;;;;;5134998;27;20634;-82
2023/03/05 09:21:51;;;;;;;23.73;13.23;;;;;;;;;;5115418;27;20608;-79
2023/03/05 09:25:46;;;;;;;16.33;10.30;;;2.80;99.90;;;;;;5136568;27;20277;-79
2023/03/05 09:29:49;;;;;;;17.97;9.70;;;;;;;;;;5075064;27;20741;-79
2023/03/05 09:33:50;;;;;;;16.60;8.83;;;2.80;99.90;;;;;;5095112;28;20464;-81
2023/03/05 09:37:52;;;;;;;19.90;11.37;;;2.70;99.90;;;;;;5074881;28;20556;-80
2023/03/05 09:42:22;;;;;;;14.97;9.00;;;1.90;99.90;;;;;;5136954;27;20272;-81
2023/03/05 09:44:50;;;;;;;21.63;11.67;;;2.90;99.90;;;;;;5117613;28;20412;-80
2023/03/05 09:48:08;;;;;;;20.23;13.40;;;3.10;99.90;;;;;;5136233;27;20654;-81
2023/03/05 09:50:40;;;;;;;19.13;11.60;;;3.20;99.90;;;;;;5134409;28;20505;-80
2023/03/05 09:53:58;;;;;;;18.60;11.80;;;3.20;99.90;;;;;;5133629;28;20412;-80
2023/03/05 09:56:31;;;;;;;17.80;11.57;;;3.20;99.90;;;;;;5130842;28;20191;-81
2023/03/05 09:59:38;;;;;;;15.23;9.30;;;3.10;99.90;;;;;;5135803;27;20190;-82
2023/03/05 10:02:25;;;;;;;15.03;10.13;;;3.10;99.90;;;;;;5121734;28;20197;-83
2023/03/05 10:05:14;;;;;;;28.57;18.07;;;3.00;99.90;;;;;;5135511;27;20187;-80
2023/03/05 10:07:44;;;;;;;22.67;12.13;;;3.20;99.90;;;;;;5132982;28;20301;-80
2023/03/05 10:10:16;;;;;;;19.47;12.53;;;3.20;99.90;;;;;;5134885;27;20634;-80
2023/03/05 10:12:49;;;;;;;22.00;12.57;;;3.20;99.90;;;;;;5133679;27;20159;-80
2023/03/05 10:15:25;;;;;;;23.30;13.00;;;3.20;99.90;;;;;;5134041;27;20162;-81
2023/03/05 10:18:08;;;;;;;22.83;13.13;;;3.30;99.90;;;;;;5133139;28;20436;-82
2023/03/05 10:21:03;;;;;;;23.80;15.77;;;3.40;99.90;;;;;;5134281;28;20409;-82
2023/03/05 10:23:31;;;;;;;20.80;13.03;;;3.30;99.90;;;;;;5133399;28;20179;-82
2023/03/05 10:26:17;;;;;;;21.03;13.20;;;3.20;99.90;;;;;;5135286;27;20195;-81
2023/03/05 10:28:55;;;;;;;24.53;14.03;;;3.20;99.90;;;;;;5133856;28;20535;-81
2023/03/05 10:31:27;;;;;;;25.50;14.03;;;3.20;99.90;;;;;;5133756;28;20167;-79
2023/03/05 10:34:24;;;;;;;19.63;12.90;;;3.20;99.90;;;;;;5131346;28;20424;-80
2023/03/05 10:36:59;;;;;;;24.23;14.17;;;3.40;99.90;;;;;;5114002;27;20297;-80
2023/03/05 10:39:53;;;;;;;23.53;14.13;;;3.40;99.90;;;;;;5132095;28;20428;-80
2023/03/05 10:42:24;;;;;;;19.60;11.63;;;3.50;99.90;;;;;;5132994;28;20161;-80
2023/03/05 10:44:53;;;;;;;17.77;11.53;;;3.70;99.90;;;;;;5131370;28;20172;-80
2023/03/05 10:47:30;;;;;;;20.30;13.07;;;3.80;99.90;;;;;;5132273;27;20625;-79
2023/03/05 10:49:57;;;;;;;20.40;12.77;;;3.80;99.90;;;;;;5132610;27;20394;-79
2023/03/05 10:52:34;;;;;;;19.43;12.23;;;3.90;99.90;;;;;;5132091;27;20466;-80
2023/03/05 10:55:00;;;;;;;16.87;10.80;;;4.00;99.90;;;;;;5132557;27;20163;-80
2023/03/05 10:57:31;;;;;;;19.40;11.47;;;4.20;99.90;;;;;;5126902;28;20207;-80
2023/03/05 11:00:12;;;;;;;20.23;12.30;;;4.20;99.90;;;;;;5118716;28;20175;-79
2023/03/05 11:03:02;;;;;;;16.57;11.07;;;4.40;99.90;;;;;;5116950;28;20171;-80
2023/03/05 11:05:41;;;;;;;21.00;13.87;;;4.30;99.90;;;;;;5114001;28;20192;-82
2023/03/05 11:08:22;;;;;;;21.80;14.40;;;4.20;99.90;;;;;;5118537;28;20503;-83
2023/03/05 11:11:07;;;;;;;21.00;14.43;;;4.40;99.90;;;;;;5119442;28;20159;-82
2023/03/05 11:13:35;;;;;;;27.87;15.13;;;4.60;99.90;;;;;;5119426;28;20160;-83
2023/03/05 11:16:03;;;;;;;22.93;15.03;;;4.90;99.90;;;;;;5122087;28;20180;-83
2023/03/05 11:18:33;;;;;;;20.33;13.30;;;5.10;99.90;;;;;;5119746;28;20210;-82
2023/03/05 11:21:27;;;;;;;16.27;11.03;;;5.10;99.90;;;;;;5121178;28;20175;-81
2023/03/05 11:24:09;;;;;;;17.30;11.23;;;5.10;99.90;;;;;;5111194;28;20215;-81
2023/03/05 11:26:35;;;;;;;18.43;12.00;;;5.10;99.90;;;;;;5117274;28;20200;-81
2023/03/05 11:29:03;;;;;;;21.00;12.47;;;5.20;99.90;;;;;;5117347;28;20673;-81
2023/03/05 11:31:31;;;;;;;20.83;13.50;;;5.10;99.90;;;;;;5115583;28;20177;-80
2023/03/05 11:34:29;;;;;;;20.90;13.80;;;5.40;99.90;;;;;;5115109;28;20202;-79
2023/03/05 11:36:55;;;;;;;20.23;11.37;;;5.70;99.90;;;;;;5116481;28;20623;-80
2023/03/05 11:39:23;;;;;;;18.67;12.83;;;5.80;99.90;;;;;;5116996;28;20648;-85
2023/03/05 11:41:56;;;;;;;15.30;10.17;;;5.90;99.90;;;;;;5117724;28;20634;-80
2023/03/05 11:44:34;;;;;;;30.40;20.10;;;6.20;99.90;;;;;;5118093;27;20160;-81
2023/03/05 11:47:11;;;;;;;24.20;17.80;;;6.50;99.90;;;;;;5118631;28;20240;-83
2023/03/05 11:49:43;;;;;;;21.33;15.63;;;6.70;99.90;;;;;;5117600;28;20198;-83
2023/03/05 11:52:20;;;;;;;20.30;12.17;;;6.60;99.90;;;;;;5117444;28;20628;-83
2023/03/05 11:55:07;;;;;;;16.43;11.13;;;6.60;99.90;;;;;;5117229;28;20527;-83
2023/03/05 11:57:48;;;;;;;11.13;8.43;;;6.90;99.90;;;;;;5117241;28;20272;-82
2023/03/05 12:00:17;;;;;;;15.47;10.80;;;6.90;99.90;;;;;;5118062;28;20163;-82
2023/03/05 12:02:44;;;;;;;16.20;9.70;;;6.90;99.90;;;;;;5118790;28;20175;-81
2023/03/05 12:05:14;;;;;;;12.03;8.90;;;6.70;99.90;;;;;;5118694;28;20197;-82
2023/03/05 12:07:44;;;;;;;14.20;10.37;;;6.50;99.90;;;;;;5119268;28;20293;-82
2023/03/05 12:10:16;;;;;;;14.73;9.83;;;6.30;99.90;;;;;;5117867;28;20636;-82
2023/03/05 12:12:57;;;;;;;14.23;9.37;;;6.20;99.90;;;;;;5117037;28;20171;-81
2023/03/05 12:15:59;;;;;;;15.23;9.73;;;6.10;99.90;;;;;;5117798;28;20164;-82
2023/03/05 12:18:34;;;;;;;14.23;9.87;;;6.10;99.90;;;;;;5117026;28;20280;-81
2023/03/05 12:21:05;;;;;;;11.27;8.30;;;5.80;99.90;;;;;;5118080;28;20258;-81
2023/03/05 12:23:47;;;;;;;14.13;9.13;;;5.60;99.90;;;;;;5116623;28;20604;-80
2023/03/05 12:26:13;;;;;;;12.97;8.63;;;5.50;99.90;;;;;;5117777;28;20611;-81
2023/03/05 12:28:42;;;;;;;13.53;9.27;;;5.30;99.90;;;;;;5117214;28;20222;-81
2023/03/05 12:31:07;;;;;;;14.27;9.30;;;5.10;99.90;;;;;;5118795;28;20173;-81
2023/03/05 12:33:42;;;;;;;14.27;9.07;;;5.10;99.90;;;;;;5116618;28;20180;-81
2023/03/05 12:36:19;;;;;;;11.93;9.00;;;5.00;99.90;;;;;;5116729;28;20187;-81
2023/03/05 12:38:53;;;;;;;12.77;8.07;;;5.00;99.90;;;;;;5118029;28;20227;-81
2023/03/05 12:41:21;;;;;;;13.60;9.07;;;5.10;99.90;;;;;;5118329;28;20162;-81
2023/03/05 12:44:05;;;;;;;11.97;8.83;;;5.00;99.90;;;;;;5117029;28;20248;-81
2023/03/05 12:47:14;;;;;;;14.90;10.13;;;4.80;99.90;;;;;;5118089;28;20212;-80
2023/03/05 12:49:44;;;;;;;21.47;11.77;;;4.60;99.90;;;;;;5118250;28;20230;-81
2023/03/05 12:52:25;;;;;;;12.83;8.27;;;4.60;99.90;;;;;;5115457;28;20164;-79
2023/03/05 12:55:07;;;;;;;12.70;8.30;;;4.50;99.90;;;;;;5115688;28;20180;-81
2023/03/05 12:57:35;;;;;;;13.70;8.87;;;4.60;99.90;;;;;;5115974;28;20295;-82
2023/03/05 13:00:12;;;;;;;12.47;8.40;;;4.50;99.90;;;;;;5117613;28;20178;-81
2023/03/05 13:02:44;;;;;;;14.80;9.63;;;4.50;99.90;;;;;;5116266;28;20173;-81
2023/03/05 13:05:34;;;;;;;14.67;8.90;;;4.40;99.90;;;;;;5117504;28;20173;-81
2023/03/05 13:08:21;;;;;;;11.83;8.17;;;4.50;99.90;;;;;;5113274;28;20572;-83
2023/03/05 13:10:59;;;;;;;11.17;7.80;;;4.50;99.90;;;;;;5118441;28;20172;-83
2023/03/05 13:13:27;;;;;;;10.27;7.10;;;4.40;99.90;;;;;;5117699;28;20574;-83
2023/03/05 13:15:53;;;;;;;12.47;8.23;;;4.30;99.90;;;;;;5117007;28;20729;-81
2023/03/05 13:18:31;;;;;;;11.97;7.77;;;4.10;99.90;;;;;;5117603;28;20228;-83
2023/03/05 13:21:13;;;;;;;10.83;7.10;;;3.90;99.90;;;;;;5116569;28;20176;-81
2023/03/05 13:23:58;;;;;;;9.73;6.83;;;3.80;99.90;;;;;;5118215;28;20164;-82
2023/03/05 13:26:38;;;;;;;9.70;7.30;;;3.90;99.90;;;;;;5116056;28;20186;-81
2023/03/05 13:29:18;;;;;;;32.40;16.10;;;4.10;99.90;;;;;;5117351;28;20188;-81
2023/03/05 13:32:30;;;;;;;13.30;8.70;;;4.20;99.90;;;;;;5116518;28;20416;-82
2023/03/05 13:34:58;;;;;;;10.87;7.43;;;4.30;99.90;;;;;;5110958;28;20576;-81
2023/03/05 13:37:33;;;;;;;11.33;7.70;;;4.40;99.90;;;;;;5116111;28;20202;-81
2023/03/05 13:40:27;;;;;;;12.70;7.63;;;4.30;99.90;;;;;;5119224;28;20163;-82
2023/03/05 13:42:54;;;;;;;10.70;7.10;;;4.40;99.90;;;;;;5117071;28;20194;-82
2023/03/05 13:45:29;;;;;;;13.60;7.70;;;4.50;99.90;;;;;;5116960;28;20190;-82
2023/03/05 13:47:58;;;;;;;11.83;7.67;;;4.60;99.90;;;;;;5115885;28;20230;-82
2023/03/05 13:50:44;;;;;;;10.70;7.73;;;4.70;99.90;;;;;;5116849;28;20248;-82
2023/03/05 13:53:23;;;;;;;12.60;8.00;;;4.90;99.90;;;;;;5116704;27;20191;-82
2023/03/05 13:55:51;;;;;;;11.63;7.87;;;5.00;99.90;;;;;;5115648;28;20191;-82
2023/03/05 13:58:43;;;;;;;15.57;8.30;;;5.00;99.90;;;;;;5116078;28;20191;-82
2023/03/05 14:01:17;;;;;;;12.40;7.87;;;4.70;99.90;;;;;;5117506;28;20168;-82
2023/03/05 14:03:44;;;;;;;11.20;7.37;;;4.60;99.90;;;;;;5116890;28;20188;-82
2023/03/05 14:06:14;;;;;;;15.50;8.63;;;4.40;99.90;;;;;;5115219;28;20704;-82
2023/03/05 14:08:40;;;;;;;10.93;6.83;;;4.40;99.90;;;;;;5114418;28;20559;-82
2023/03/05 14:11:15;;;;;;;9.87;7.10;;;4.30;99.90;;;;;;5113440;28;20180;-82
2023/03/05 14:13:41;;;;;;;10.17;6.20;;;4.20;99.90;;;;;;5114752;28;20196;-82
2023/03/05 14:16:13;;;;;;;11.63;7.03;;;4.20;99.90;;;;;;5123038;28;20180;-82
2023/03/05 14:18:56;;;;;;;15.00;7.40;;;4.00;99.90;;;;;;5124461;28;20256;-81
2023/03/05 14:21:22;;;;;;;12.27;7.87;;;3.90;99.90;;;;;;5120558;28;20254;-82
2023/03/05 14:23:51;;;;;;;12.10;6.97;;;4.00;99.90;;;;;;5116003;28;20559;-81
2023/03/05 14:26:35;;;;;;;15.57;8.60;;;4.00;99.90;;;;;;5115031;28;20195;-81
2023/03/05 14:29:09;;;;;;;11.00;7.57;;;4.10;99.90;;;;;;5117030;28;20696;-81
2023/03/05 14:32:06;;;;;;;12.10;8.40;;;4.30;99.90;;;;;;5120341;28;20167;-86
2023/03/05 14:34:40;;;;;;;11.17;7.23;;;4.40;99.90;;;;;;5111867;28;20239;-83
2023/03/05 14:37:20;;;;;;;11.50;6.80;;;4.50;99.90;;;;;;5125305;28;20168;-84
2023/03/05 14:39:53;;;;;;;12.27;8.33;;;4.50;99.90;;;;;;5124368;28;20228;-86
2023/03/05 14:42:35;;;;;;;12.73;8.43;;;4.50;99.90;;;;;;5122349;28;20217;-85
2023/03/05 14:45:16;;;;;;;19.77;12.47;;;4.40;99.90;;;;;;5122303;28;20175;-86
2023/03/05 14:47:42;;;;;;;12.07;8.17;;;4.30;99.90;;;;;;5124133;28;20207;-87
2023/03/05 14:50:20;;;;;;;16.20;10.50;;;4.20;99.90;;;;;;5122766;28;20317;-84
2023/03/05 14:52:48;;;;;;;15.67;8.53;;;4.20;99.90;;;;;;5121763;28;20175;-84
2023/03/05 14:55:20;;;;;;;11.47;7.63;;;4.20;99.90;;;;;;5121954;28;20179;-86
2023/03/05 14:57:47;;;;;;;11.20;7.53;;;4.00;99.90;;;;;;5121360;28;20294;-84
2023/03/05 15:00:17;;;;;;;12.90;8.00;;;;;;;;;;5120622;28;20183;-84
2023/03/05 15:02:42;;;;;;;9.40;5.90;;;3.90;99.90;;;;;;5121443;28;20560;-85
2023/03/05 15:05:08;;;;;;;11.40;8.00;;;;;;;;;;5124677;28;20281;-85
2023/03/05 15:07:35;;;;;;;14.83;8.50;;;3.80;99.90;;;;;;5121963;28;20260;-85
2023/03/05 15:10:01;;;;;;;17.23;8.77;;;3.90;99.90;;;;;;5121571;28;20175;-85
2023/03/05 15:12:27;;;;;;;20.53;11.03;;;;;;;;;;5123670;28;20179;-86
2023/03/05 15:14:54;;;;;;;14.47;8.33;;;3.80;99.90;;;;;;5123230;28;20194;-83
2023/03/05 15:17:33;;;;;;;14.63;7.77;;;3.80;99.90;;;;;;5123115;28;20238;-85
2023/03/05 15:19:59;;;;;;;15.97;8.67;;;3.80;99.90;;;;;;5122845;28;20159;-83
2023/03/05 15:22:25;;;;;;;12.53;8.07;;;3.80;99.90;;;;;;5121388;28;20537;-81
2023/03/05 15:24:51;;;;;;;12.40;7.97;;;3.70;99.90;;;;;;5122344;28;20215;-81
2023/03/05 15:27:16;;;;;;;10.87;7.90;;;3.80;99.90;;;;;;5121851;28;20207;-82
2023/03/05 15:29:42;;;;;;;12.83;8.83;;;3.80;99.90;;;;;;5121967;28;20176;-84
2023/03/05 15:32:08;;;;;;;14.27;8.30;;;3.80;99.90;;;;;;5123789;28;20171;-82
2023/03/05 15:34:34;;;;;;;11.57;8.27;;;3.70;99.90;;;;;;5120864;28;20577;-83
2023/03/05 15:37:01;;;;;;;12.30;8.00;;;3.60;99.90;;;;;;5122842;28;20501;-84
2023/03/05 15:39:27;;;;;;;15.67;8.70;;;;;;;;;;5121748;28;20175;-84
2023/03/05 15:41:53;;;;;;;15.20;10.43;;;3.50;99.90;;;;;;5120851;28;20474;-83
2023/03/05 15:44:19;;;;;;;14.13;7.90;;;3.50;99.90;;;;;;5120464;28;20586;-83
2023/03/05 15:46:45;;;;;;;13.60;7.93;;;;;;;;;;5120065;28;20635;-83
2023/03/05 15:49:11;;;;;;;14.80;9.77;;;3.40;99.90;;;;;;5120129;28;20550;-83
2023/03/05 15:51:37;;;;;;;13.33;8.00;;;3.40;99.90;;;;;;5120732;28;20527;-83
2023/03/05 15:54:03;;;;;;;12.00;6.53;;;3.40;99.90;;;;;;5120442;28;20636;-84
